Time;durP1;ratioP1;P1;durP2;ratioP2;P2;SDS_P1;SDS_P2;PMS_P1;PMS_P2;Temp;Humidity;BMP_temperature;BMP_pressure;BME280_temperature;BME280_humidity;BME280_pressure;Samples;Min_cycle;Max_cycle;Signal;HPM_P1;HPM_P2
2021/01/20 00:02:14;;;;;;;57.30;22.67;;;-3.20;99.90;;;;;;5074798;28;20198;-86
2021/01/20 00:04:40;;;;;;;82.80;36.70;;;-3.20;99.90;;;;;;5074542;28;20181;-86
2021/01/20 00:07:06;;;;;;;64.50;28.03;;;-3.20;99.90;;;;;;5056404;28;20651;-88
2021/01/20 00:09:31;;;;;;;60.80;26.10;;;-1.60;99.90;;;;;;5073077;28;20183;-86
2021/01/20 00:11:57;;;;;;;59.70;25.83;;;-1.60;99.90;;;;;;5074743;28;20195;-85
2021/01/20 00:14:23;;;;;;;82.30;33.63;;;-3.10;99.90;;;;;;5074845;28;20240;-87
2021/01/20 00:16:49;;;;;;;60.00;27.60;;;-3.20;99.90;;;;;;5068567;28;20276;-84
2021/01/20 00:19:14;;;;;;;56.97;24.63;;;-2.20;99.90;;;;;;5054157;28;20222;-84
2021/01/20 00:21:41;;;;;;;65.23;25.90;;;-3.10;99.90;;;;;;5054118;28;20482;-85
2021/01/20 00:24:07;;;;;;;59.97;24.23;;;-3.20;99.90;;;;;;5036671;28;20672;-86
2021/01/20 00:26:33;;;;;;;61.77;26.67;;;-3.10;99.90;;;;;;5036604;28;20181;-86
2021/01/20 00:28:59;;;;;;;65.07;27.67;;;-1.10;99.90;;;;;;5036172;28;20637;-86
2021/01/20 00:31:25;;;;;;;62.10;25.80;;;-3.10;99.90;;;;;;5036290;28;20189;-85
2021/01/20 00:33:50;;;;;;;56.93;24.37;;;-3.10;99.90;;;;;;5036224;28;20550;-87
2021/01/20 00:36:16;;;;;;;62.87;27.30;;;-3.10;99.90;;;;;;5036208;28;20221;-87
2021/01/20 00:38:42;;;;;;;60.33;27.37;;;-2.70;99.90;;;;;;5049866;28;20549;-86
2021/01/20 00:41:07;;;;;;;74.30;31.20;;;-1.50;99.90;;;;;;5031993;28;20195;-86
2021/01/20 00:43:33;;;;;;;59.93;26.33;;;-3.00;99.90;;;;;;5036299;28;20602;-86
2021/01/20 00:45:59;;;;;;;57.47;23.80;;;-3.00;99.90;;;;;;5054187;28;20188;-86
2021/01/20 00:48:24;;;;;;;52.13;23.97;;;-1.90;99.90;;;;;;5035431;28;20267;-86
2021/01/20 00:50:57;;;;;;;57.43;24.77;;;-2.60;99.90;;;;;;5019533;28;20208;-86
2021/01/20 00:53:23;;;;;;;47.97;21.00;;;-3.00;99.90;;;;;;5022440;28;20216;-86
2021/01/20 00:55:49;;;;;;;61.43;24.20;;;-3.00;99.90;;;;;;5054018;28;20184;-86
2021/01/20 00:58:15;;;;;;;53.07;25.03;;;-1.60;99.90;;;;;;5053434;28;20681;-86
2021/01/20 01:00:41;;;;;;;47.63;23.90;;;-3.00;99.90;;;;;;5022122;28;20196;-86
2021/01/20 01:03:07;;;;;;;46.90;21.97;;;-3.00;99.90;;;;;;5053701;28;20636;-85
2021/01/20 01:05:33;;;;;;;44.37;21.20;;;-3.00;99.90;;;;;;5053383;28;20654;-85
2021/01/20 01:07:58;;;;;;;54.00;21.00;;;-1.60;99.90;;;;;;5035194;28;20227;-86
2021/01/20 01:10:24;;;;;;;46.43;21.00;;;-1.50;99.90;;;;;;5035762;28;20210;-85
2021/01/20 01:12:50;;;;;;;53.97;23.80;;;-2.90;99.90;;;;;;5053336;28;20187;-85
2021/01/20 01:15:16;;;;;;;78.60;34.93;;;-1.60;99.90;;;;;;5053396;28;20272;-86
2021/01/20 01:17:41;;;;;;;94.70;38.80;;;-2.90;99.90;;;;;;5057001;28;20325;-86
2021/01/20 01:20:07;;;;;;;58.37;24.10;;;-1.30;99.90;;;;;;5073308;28;20656;-86
2021/01/20 01:22:33;;;;;;;72.43;27.23;;;-2.90;99.90;;;;;;5071920;28;20213;-86
2021/01/20 01:24:59;;;;;;;186.70;58.80;;;-2.90;99.90;;;;;;5072195;28;20188;-85
2021/01/20 01:27:24;;;;;;;119.83;41.37;;;-2.90;99.90;;;;;;5071446;28;20203;-86
2021/01/20 01:29:50;;;;;;;74.13;29.83;;;-1.20;99.90;;;;;;5071686;28;20185;-86
2021/01/20 01:32:16;;;;;;;78.07;31.70;;;-2.90;99.90;;;;;;5071882;28;20610;-86
2021/01/20 01:34:43;;;;;;;92.53;37.23;;;-1.40;99.90;;;;;;5071413;28;20236;-86
2021/01/20 01:37:09;;;;;;;53.60;23.83;;;-0.70;99.90;;;;;;5072731;28;20306;-86
2021/01/20 01:39:36;;;;;;;49.63;23.57;;;-1.90;99.90;;;;;;5064217;28;20338;-86
2021/01/20 01:42:04;;;;;;;71.33;30.43;;;-2.80;99.90;;;;;;5072684;28;20228;-86
2021/01/20 01:44:31;;;;;;;69.13;28.57;;;-2.80;99.90;;;;;;5072871;28;20186;-86
2021/01/20 01:46:56;;;;;;;62.57;27.67;;;-2.70;99.90;;;;;;5072479;28;20717;-86
2021/01/20 01:49:23;;;;;;;63.67;26.67;;;-2.10;99.90;;;;;;5071360;28;20225;-86
2021/01/20 01:51:50;;;;;;;57.37;25.00;;;-2.70;99.90;;;;;;5069522;28;20189;-85
2021/01/20 01:54:16;;;;;;;58.10;25.10;;;-2.70;99.90;;;;;;5059166;28;20205;-85
2021/01/20 01:56:43;;;;;;;77.83;31.77;;;-2.70;99.90;;;;;;5072427;28;20560;-86
2021/01/20 01:59:09;;;;;;;135.77;54.27;;;-2.30;99.90;;;;;;5065357;28;20228;-85
2021/01/20 02:01:34;;;;;;;53.00;21.03;;;-1.00;99.90;;;;;;5062342;28;20292;-85
2021/01/20 02:04:00;;;;;;;64.70;26.50;;;-2.70;99.90;;;;;;5072055;28;20183;-86
2021/01/20 02:06:26;;;;;;;54.60;25.07;;;-2.60;99.90;;;;;;5071371;28;20202;-86
2021/01/20 02:08:53;;;;;;;41.40;18.77;;;-2.60;99.90;;;;;;5070380;28;20226;-86
2021/01/20 02:11:18;;;;;;;50.17;21.77;;;-2.70;99.90;;;;;;5071263;28;20237;-85
2021/01/20 02:13:59;;;;;;;47.90;21.47;;;-2.60;99.90;;;;;;5070637;28;20583;-88
2021/01/20 02:16:28;;;;;;;56.83;22.23;;;-2.60;99.90;;;;;;5062080;28;20229;-86
2021/01/20 02:18:56;;;;;;;45.93;20.67;;;-2.60;99.90;;;;;;5046359;28;20281;-87
2021/01/20 02:21:43;;;;;;;48.03;20.53;;;-0.90;99.90;;;;;;5052356;28;20189;-86
2021/01/20 02:24:11;;;;;;;46.13;20.00;;;-2.60;99.90;;;;;;5052453;28;20663;-86
2021/01/20 02:27:11;;;;;;;46.33;20.20;;;-2.60;99.90;;;;;;5052137;28;20176;-87
2021/01/20 02:30:08;;;;;;;40.50;18.87;;;-2.60;99.90;;;;;;5034182;28;20178;-86
2021/01/20 02:32:35;;;;;;;46.20;19.60;;;-2.50;99.90;;;;;;5049368;28;20227;-86
2021/01/20 02:35:03;;;;;;;41.83;19.57;;;-2.50;99.90;;;;;;5004913;28;20183;-86
2021/01/20 02:37:30;;;;;;;38.70;18.37;;;-2.50;99.90;;;;;;5051434;28;20215;-86
2021/01/20 02:39:57;;;;;;;45.83;20.60;;;-1.40;99.90;;;;;;5025458;28;20583;-86
2021/01/20 02:42:22;;;;;;;38.23;18.97;;;-1.00;99.90;;;;;;5051969;28;20690;-86
2021/01/20 02:44:48;;;;;;;41.27;18.60;;;-1.00;99.90;;;;;;5017188;28;20186;-86
2021/01/20 02:47:14;;;;;;;38.23;18.77;;;-2.20;99.90;;;;;;5051257;28;20615;-85
2021/01/20 02:49:40;;;;;;;48.43;21.40;;;-0.80;99.90;;;;;;5049827;28;20253;-86
2021/01/20 02:52:48;;;;;;;38.03;17.70;;;-2.40;99.90;;;;;;5035375;28;20204;-85
2021/01/20 02:55:17;;;;;;;47.97;21.53;;;-2.50;99.90;;;;;;4950101;28;20310;-85
2021/01/20 02:57:44;;;;;;;40.50;20.23;;;-2.00;99.90;;;;;;5018879;28;20621;-85
2021/01/20 03:00:11;;;;;;;43.43;20.27;;;-0.50;99.90;;;;;;5051073;28;20277;-85
2021/01/20 03:02:39;;;;;;;43.40;20.57;;;-2.40;99.90;;;;;;5051754;28;20181;-85
2021/01/20 03:05:07;;;;;;;43.67;20.20;;;-2.00;99.90;;;;;;5033565;28;20330;-85
2021/01/20 03:07:34;;;;;;;46.47;26.47;;;-2.40;99.90;;;;;;5051653;28;20217;-85
2021/01/20 03:10:01;;;;;;;48.70;22.57;;;-1.70;99.90;;;;;;5051123;28;20187;-85
2021/01/20 03:12:30;;;;;;;166.83;55.93;;;-1.50;99.90;;;;;;5051060;28;20326;-85
2021/01/20 03:14:57;;;;;;;68.40;29.40;;;-2.40;99.90;;;;;;5033265;28;20236;-85
2021/01/20 03:17:26;;;;;;;40.10;19.50;;;-2.30;99.90;;;;;;5050123;28;20246;-85
2021/01/20 03:19:51;;;;;;;39.93;17.37;;;-1.50;99.90;;;;;;5071236;28;20191;-85
2021/01/20 03:22:17;;;;;;;80.20;35.37;;;-2.30;99.90;;;;;;5071156;28;20254;-86
2021/01/20 03:24:43;;;;;;;74.83;28.97;;;-0.80;99.90;;;;;;5071252;28;20177;-85
2021/01/20 03:27:08;;;;;;;45.73;23.03;;;-1.50;99.90;;;;;;5070799;28;20198;-85
2021/01/20 03:29:34;;;;;;;75.27;31.23;;;-2.30;99.90;;;;;;5071025;28;20209;-85
2021/01/20 03:32:00;;;;;;;75.07;33.87;;;-1.10;99.90;;;;;;5069810;28;20276;-85
2021/01/20 03:34:25;;;;;;;44.07;20.20;;;-1.50;99.90;;;;;;5071193;28;20224;-84
2021/01/20 03:36:51;;;;;;;45.23;21.40;;;-0.80;99.90;;;;;;5069269;28;20557;-85
2021/01/20 03:39:17;;;;;;;48.10;23.77;;;-2.20;99.90;;;;;;5044565;28;20193;-85
2021/01/20 03:41:42;;;;;;;56.13;26.87;;;-2.20;99.90;;;;;;5071183;28;20189;-85
2021/01/20 03:44:08;;;;;;;45.63;21.23;;;-2.30;99.90;;;;;;5069623;28;20192;-85
2021/01/20 03:46:33;;;;;;;45.73;19.87;;;-1.00;99.90;;;;;;5069532;28;20202;-85
2021/01/20 03:48:59;;;;;;;40.43;19.60;;;-2.20;99.90;;;;;;5070977;28;20262;-85
2021/01/20 03:51:28;;;;;;;52.80;25.43;;;-1.70;99.90;;;;;;5069705;28;20227;-85
2021/01/20 03:53:54;;;;;;;38.57;19.53;;;-1.40;99.90;;;;;;5055564;28;20210;-85
2021/01/20 03:56:20;;;;;;;35.70;18.53;;;-0.70;99.90;;;;;;5069937;28;20652;-86
2021/01/20 03:58:45;;;;;;;58.93;25.43;;;-1.00;99.90;;;;;;5070974;28;20196;-86
2021/01/20 04:01:11;;;;;;;52.03;24.67;;;-0.50;99.90;;;;;;5070808;28;20526;-85
2021/01/20 04:03:36;;;;;;;55.13;24.83;;;-1.90;99.90;;;;;;5071009;28;20536;-85
2021/01/20 04:06:04;;;;;;;57.13;28.23;;;-0.30;99.90;;;;;;5069674;28;20189;-86
2021/01/20 04:08:29;;;;;;;60.10;27.43;;;-2.20;99.90;;;;;;5070618;28;20191;-83
2021/01/20 04:10:55;;;;;;;62.07;31.07;;;-2.10;99.90;;;;;;5069212;28;20410;-84
2021/01/20 04:13:23;;;;;;;90.73;38.37;;;-2.10;99.90;;;;;;5069421;28;20179;-84
2021/01/20 04:15:48;;;;;;;55.07;23.40;;;-2.10;99.90;;;;;;5070915;28;20248;-86
2021/01/20 04:18:14;;;;;;;57.00;25.03;;;-2.10;99.90;;;;;;5068806;28;20376;-87
2021/01/20 04:20:39;;;;;;;50.97;24.70;;;-0.70;99.90;;;;;;5069403;28;20185;-85
2021/01/20 04:23:05;;;;;;;61.67;27.73;;;-0.10;99.90;;;;;;5069735;28;20199;-86
2021/01/20 04:25:31;;;;;;;81.90;41.83;;;-1.60;99.90;;;;;;5072574;28;20260;-85
2021/01/20 04:27:56;;;;;;;113.20;58.17;;;-0.60;99.90;;;;;;5073607;28;20188;-86
2021/01/20 04:30:22;;;;;;;78.07;38.83;;;-2.00;99.90;;;;;;5074458;28;20258;-86
2021/01/20 04:32:48;;;;;;;68.60;30.67;;;-2.00;99.90;;;;;;5074245;28;20194;-85
2021/01/20 04:35:14;;;;;;;68.93;28.80;;;-0.20;99.90;;;;;;5074147;28;20272;-85
2021/01/20 04:37:40;;;;;;;59.37;29.27;;;-1.90;99.90;;;;;;5073686;28;20229;-85
2021/01/20 04:40:07;;;;;;;70.20;30.13;;;-0.90;99.90;;;;;;5063954;28;20202;-87
2021/01/20 04:42:33;;;;;;;61.60;28.47;;;-1.90;99.90;;;;;;5072935;28;20200;-85
2021/01/20 04:44:59;;;;;;;66.57;28.27;;;-2.00;99.90;;;;;;5067464;28;20704;-86
2021/01/20 04:47:26;;;;;;;53.60;24.70;;;-1.90;99.90;;;;;;5067862;28;20191;-85
2021/01/20 04:49:53;;;;;;;53.63;23.50;;;-1.90;99.90;;;;;;5073742;28;20284;-87
2021/01/20 04:52:20;;;;;;;59.43;23.77;;;-1.60;99.90;;;;;;5055546;28;20270;-87
2021/01/20 04:54:46;;;;;;;63.27;29.40;;;-1.90;99.90;;;;;;5055267;28;20604;-86
2021/01/20 04:57:16;;;;;;;50.77;25.80;;;-1.60;99.90;;;;;;5067903;28;20211;-87
2021/01/20 04:59:42;;;;;;;42.33;22.20;;;-1.60;99.90;;;;;;5074816;28;20183;-88
2021/01/20 05:02:12;;;;;;;45.07;22.03;;;-1.10;99.90;;;;;;5074135;28;20220;-88
2021/01/20 05:04:39;;;;;;;44.93;20.77;;;-0.50;99.90;;;;;;5065484;28;20224;-88
2021/01/20 05:07:06;;;;;;;41.60;19.77;;;-0.60;99.90;;;;;;5051534;28;20190;-87
2021/01/20 05:09:33;;;;;;;46.53;22.30;;;-0.60;99.90;;;;;;5052169;28;20238;-88
2021/01/20 05:11:58;;;;;;;44.67;21.00;;;-1.80;99.90;;;;;;5052198;28;20586;-87
2021/01/20 05:14:24;;;;;;;54.27;25.77;;;-0.70;99.90;;;;;;5055687;28;20195;-87
2021/01/20 05:16:53;;;;;;;45.07;21.17;;;-0.50;99.90;;;;;;5064105;28;20235;-87
2021/01/20 05:19:39;;;;;;;66.47;26.53;;;-1.50;99.90;;;;;;5015484;28;20655;-87
2021/01/20 05:22:11;;;;;;;58.43;26.13;;;-1.70;99.90;;;;;;5030750;28;20581;-86
2021/01/20 05:24:37;;;;;;;60.23;25.50;;;-1.30;99.90;;;;;;5053323;28;20188;-88
2021/01/20 05:27:04;;;;;;;64.73;26.90;;;-1.60;99.90;;;;;;5034490;28;20253;-87
2021/01/20 05:29:31;;;;;;;61.93;25.07;;;-1.70;99.90;;;;;;5047681;28;20222;-86
2021/01/20 05:31:56;;;;;;;50.63;22.83;;;-0.60;99.90;;;;;;5053036;28;20222;-88
2021/01/20 05:34:23;;;;;;;51.80;22.13;;;-0.30;99.90;;;;;;5031173;28;20967;-87
2021/01/20 05:37:08;;;;;;;50.90;21.43;;;-0.10;99.90;;;;;;5052403;28;20208;-88
2021/01/20 05:39:35;;;;;;;48.37;20.73;;;-1.70;99.90;;;;;;5049495;28;20230;-86
2021/01/20 05:42:13;;;;;;;45.20;21.77;;;-1.60;99.90;;;;;;5034991;28;20191;-87
2021/01/20 05:44:39;;;;;;;42.60;19.57;;;-1.70;99.90;;;;;;5052692;28;20212;-88
2021/01/20 05:47:13;;;;;;;43.33;19.13;;;-1.70;99.90;;;;;;5034037;28;20191;-88
2021/01/20 05:49:39;;;;;;;50.33;22.03;;;-1.70;99.90;;;;;;5052779;28;20190;-87
2021/01/20 05:52:16;;;;;;;50.33;21.03;;;-1.60;99.90;;;;;;5052398;28;20211;-88
2021/01/20 05:54:42;;;;;;;41.73;20.17;;;-1.70;99.90;;;;;;5044361;28;20194;-86
2021/01/20 05:57:19;;;;;;;52.57;21.23;;;-1.70;99.90;;;;;;5027494;28;20579;-86
2021/01/20 05:59:48;;;;;;;43.60;20.57;;;-1.50;99.90;;;;;;5030481;28;20609;-85
2021/01/20 06:02:15;;;;;;;94.07;31.60;;;-0.80;99.90;;;;;;5043401;28;20698;-87
2021/01/20 06:04:42;;;;;;;76.90;28.30;;;-1.60;99.90;;;;;;5033430;28;20183;-86
2021/01/20 06:07:13;;;;;;;59.00;26.63;;;-0.60;99.90;;;;;;5022182;28;20183;-86
2021/01/20 06:09:41;;;;;;;60.07;27.57;;;-0.80;99.90;;;;;;5049115;28;20184;-87
2021/01/20 06:12:09;;;;;;;54.50;24.50;;;0.70;99.90;;;;;;5048329;28;20190;-88
2021/01/20 06:14:35;;;;;;;57.70;25.87;;;-1.50;99.90;;;;;;5033292;28;20275;-86
2021/01/20 06:17:21;;;;;;;48.57;23.60;;;-1.50;99.90;;;;;;5036052;28;20697;-88
2021/01/20 06:19:49;;;;;;;42.10;20.30;;;-1.50;99.90;;;;;;5067103;28;20711;-88
2021/01/20 06:22:17;;;;;;;42.20;20.33;;;-0.10;99.90;;;;;;5067892;28;20229;-90
2021/01/20 06:24:56;;;;;;;39.23;18.60;;;-1.50;99.90;;;;;;5072107;28;20175;-88
2021/01/20 06:27:26;;;;;;;37.83;20.40;;;-1.50;99.90;;;;;;5071649;28;20186;-88
2021/01/20 06:29:59;;;;;;;56.87;25.00;;;-1.50;99.90;;;;;;5071620;28;20268;-86
2021/01/20 06:32:27;;;;;;;52.10;23.73;;;-1.50;99.90;;;;;;5066914;28;20236;-86
2021/01/20 06:34:54;;;;;;;45.53;22.10;;;-0.90;99.90;;;;;;5063625;28;20212;-88
2021/01/20 06:37:37;;;;;;;43.70;21.50;;;-0.40;99.90;;;;;;5072486;28;20219;-88
2021/01/20 06:40:18;;;;;;;43.07;21.00;;;-0.40;99.90;;;;;;5068315;28;20189;-88
2021/01/20 06:42:44;;;;;;;48.37;22.70;;;-1.40;99.90;;;;;;5072170;28;20235;-88
2021/01/20 06:45:23;;;;;;;50.73;24.70;;;-1.40;99.90;;;;;;5071994;28;20187;-88
2021/01/20 06:47:58;;;;;;;58.13;26.43;;;-1.40;99.90;;;;;;5066186;28;20278;-88
2021/01/20 06:50:28;;;;;;;71.10;31.80;;;0.30;99.90;;;;;;5073287;28;20262;-87
2021/01/20 06:53:03;;;;;;;63.90;29.43;;;-1.40;99.90;;;;;;5072255;28;20191;-88
2021/01/20 06:55:33;;;;;;;57.13;27.23;;;-1.30;99.90;;;;;;5070462;28;20717;-87
2021/01/20 06:58:25;;;;;;;55.37;25.50;;;-1.30;99.90;;;;;;5076847;28;20206;-88
2021/01/20 07:01:00;;;;;;;55.03;25.20;;;-1.30;99.90;;;;;;5076719;28;20666;-86
2021/01/20 07:03:53;;;;;;;53.83;26.60;;;-0.70;99.90;;;;;;5076533;28;20186;-87
2021/01/20 07:06:37;;;;;;;54.13;25.47;;;-1.20;99.90;;;;;;5073554;28;20179;-87
2021/01/20 07:09:04;;;;;;;50.80;24.13;;;-0.20;99.90;;;;;;5069449;28;20181;-88
2021/01/20 07:11:29;;;;;;;55.07;25.80;;;-1.20;99.90;;;;;;5070881;28;20179;-87
2021/01/20 07:13:55;;;;;;;62.80;28.90;;;-1.20;99.90;;;;;;5060251;28;20191;-86
2021/01/20 07:16:22;;;;;;;76.07;35.07;;;-1.20;99.90;;;;;;5052775;28;20191;-88
2021/01/20 07:18:52;;;;;;;68.23;31.37;;;-0.20;99.90;;;;;;5035176;28;20250;-88
2021/01/20 07:21:18;;;;;;;56.50;26.47;;;0.40;99.90;;;;;;5051951;28;20239;-88
2021/01/20 07:23:43;;;;;;;78.50;37.37;;;0.20;99.90;;;;;;5034430;28;20246;-87
2021/01/20 07:26:10;;;;;;;70.67;31.20;;;-0.30;99.90;;;;;;5014435;28;20275;-89
2021/01/20 07:28:37;;;;;;;55.60;26.27;;;0.40;99.90;;;;;;5035370;28;20180;-87
2021/01/20 07:31:14;;;;;;;63.40;28.37;;;-0.90;99.90;;;;;;5055633;28;20187;-89
2021/01/20 07:33:49;;;;;;;53.83;26.73;;;-0.70;99.90;;;;;;5025606;28;20259;-88
2021/01/20 07:36:18;;;;;;;49.80;25.10;;;-0.30;99.90;;;;;;5036388;28;20489;-89
2021/01/20 07:38:45;;;;;;;57.70;28.23;;;-0.70;99.90;;;;;;5051976;28;20362;-88
2021/01/20 07:41:20;;;;;;;50.50;25.23;;;-0.70;99.90;;;;;;5052132;28;20187;-89
2021/01/20 07:43:46;;;;;;;60.27;25.70;;;-0.10;99.90;;;;;;5033662;28;20186;-88
2021/01/20 07:46:21;;;;;;;61.27;29.23;;;0.10;99.90;;;;;;5034063;28;20185;-88
2021/01/20 07:48:47;;;;;;;61.43;29.50;;;-0.40;99.90;;;;;;5029717;28;20215;-90
2021/01/20 07:51:18;;;;;;;53.57;25.47;;;-0.60;99.90;;;;;;5030233;28;20203;-88
2021/01/20 07:54:00;;;;;;;49.17;24.13;;;-0.50;99.90;;;;;;5033719;28;20644;-88
2021/01/20 07:56:26;;;;;;;56.57;25.73;;;-0.50;99.90;;;;;;5031089;28;20306;-88
2021/01/20 07:58:52;;;;;;;67.20;30.33;;;-0.50;99.90;;;;;;5051034;28;20306;-87
2021/01/20 08:01:44;;;;;;;59.90;27.30;;;0.80;99.90;;;;;;5054593;28;20192;-88
2021/01/20 08:04:23;;;;;;;56.20;26.53;;;-0.20;99.90;;;;;;5032867;28;20188;-88
2021/01/20 08:06:50;;;;;;;50.13;24.33;;;1.10;99.90;;;;;;5034553;28;20198;-88
2021/01/20 08:09:16;;;;;;;49.07;26.03;;;-0.30;99.90;;;;;;5030453;28;20182;-88
2021/01/20 08:11:45;;;;;;;51.23;24.27;;;-0.30;99.90;;;;;;5046814;28;20184;-89
2021/01/20 08:14:12;;;;;;;59.37;24.40;;;-0.30;99.90;;;;;;5016438;28;20592;-88
2021/01/20 08:16:38;;;;;;;62.27;28.17;;;0.70;99.90;;;;;;5032626;28;20251;-88
2021/01/20 08:19:05;;;;;;;49.00;25.03;;;0.10;99.90;;;;;;5033935;28;20275;-87
2021/01/20 08:21:32;;;;;;;52.87;24.37;;;0.90;99.90;;;;;;5016227;28;20208;-88
2021/01/20 08:24:00;;;;;;;48.47;24.73;;;1.00;99.90;;;;;;5016547;28;20272;-89
2021/01/20 08:26:30;;;;;;;49.77;23.83;;;0.80;99.90;;;;;;5022883;28;20254;-88
2021/01/20 08:29:12;;;;;;;65.43;29.93;;;0.10;99.90;;;;;;5054224;28;20186;-89
2021/01/20 08:31:42;;;;;;;55.60;27.23;;;-0.10;99.90;;;;;;5035608;28;20181;-89
2021/01/20 08:34:13;;;;;;;52.60;25.50;;;-0.10;99.90;;;;;;5036323;28;20183;-89
2021/01/20 08:36:49;;;;;;;51.13;24.20;;;1.30;99.90;;;;;;5047349;28;20291;-89
2021/01/20 08:39:15;;;;;;;48.23;25.07;;;1.10;99.90;;;;;;5053599;28;20209;-89
2021/01/20 08:41:41;;;;;;;49.50;22.73;;;1.40;99.90;;;;;;5035729;28;20644;-89
2021/01/20 08:44:16;;;;;;;57.07;27.07;;;1.10;99.90;;;;;;5035906;28;20658;-89
2021/01/20 08:46:42;;;;;;;44.33;22.90;;;0.10;99.90;;;;;;5019135;28;20187;-89
2021/01/20 08:49:07;;;;;;;55.13;26.20;;;0.10;99.90;;;;;;5049614;28;20195;-88
2021/01/20 08:51:33;;;;;;;47.40;23.97;;;0.10;99.90;;;;;;5053866;28;20722;-89
2021/01/20 08:54:11;;;;;;;40.90;21.00;;;0.30;99.90;;;;;;5035922;28;20271;-89
2021/01/20 08:56:38;;;;;;;40.10;20.27;;;0.20;99.90;;;;;;5054973;28;20213;-87
2021/01/20 08:59:04;;;;;;;44.27;23.07;;;0.20;99.90;;;;;;5037532;28;20227;-89
2021/01/20 09:01:30;;;;;;;55.03;27.10;;;0.30;99.90;;;;;;5037373;28;20667;-90
2021/01/20 09:04:02;;;;;;;51.77;24.53;;;0.20;99.90;;;;;;5038509;28;20188;-89
2021/01/20 09:06:28;;;;;;;54.77;27.10;;;0.60;99.90;;;;;;5037685;28;20245;-89
2021/01/20 09:08:54;;;;;;;39.73;22.33;;;0.40;99.90;;;;;;5054477;28;20180;-90
2021/01/20 09:11:20;;;;;;;57.60;29.07;;;0.90;99.90;;;;;;5054183;28;20184;-91
2021/01/20 09:13:46;;;;;;;53.77;24.97;;;0.70;99.90;;;;;;5054617;28;20198;-90
2021/01/20 09:16:12;;;;;;;47.00;22.27;;;1.40;99.90;;;;;;5020440;28;20187;-88
2021/01/20 09:18:38;;;;;;;45.77;22.47;;;0.60;99.90;;;;;;5035581;28;20298;-89
2021/01/20 09:21:05;;;;;;;41.30;20.13;;;0.60;99.90;;;;;;5037131;28;20183;-87
2021/01/20 09:23:31;;;;;;;42.40;19.40;;;0.60;99.90;;;;;;5007606;28;20256;-90
2021/01/20 09:25:57;;;;;;;40.37;20.43;;;0.60;99.90;;;;;;5032983;28;20273;-90
2021/01/20 09:28:23;;;;;;;51.63;25.33;;;0.60;99.90;;;;;;5038802;28;20290;-89
2021/01/20 09:30:49;;;;;;;41.87;21.10;;;0.70;99.90;;;;;;5039997;28;20209;-90
2021/01/20 09:33:15;;;;;;;42.67;22.03;;;0.70;99.90;;;;;;5054598;28;20180;-87
2021/01/20 09:35:41;;;;;;;39.93;20.10;;;2.50;99.90;;;;;;5036538;28;20659;-90
2021/01/20 09:38:07;;;;;;;43.63;21.13;;;1.80;99.90;;;;;;5052868;28;20216;-89
2021/01/20 09:40:33;;;;;;;39.43;20.10;;;0.80;99.90;;;;;;5051182;28;20187;-89
2021/01/20 09:42:59;;;;;;;38.33;20.77;;;0.90;99.90;;;;;;5034007;28;20283;-91
2021/01/20 09:45:27;;;;;;;37.83;19.90;;;0.90;99.90;;;;;;5034711;28;20211;-89
2021/01/20 09:48:01;;;;;;;47.30;23.10;;;1.00;99.90;;;;;;5033767;28;20213;-92
2021/01/20 09:50:29;;;;;;;45.00;22.27;;;1.30;99.90;;;;;;5054440;28;20225;-90
2021/01/20 09:52:54;;;;;;;36.50;18.97;;;2.40;99.90;;;;;;5035159;28;20184;-92
2021/01/20 09:55:21;;;;;;;55.40;24.20;;;2.10;99.90;;;;;;5020073;28;20188;-92
2021/01/20 09:57:46;;;;;;;40.77;22.07;;;2.00;99.90;;;;;;5016536;28;20571;-90
2021/01/20 10:00:12;;;;;;;49.10;23.30;;;1.40;99.90;;;;;;5012552;28;20237;-88
2021/01/20 10:02:40;;;;;;;42.60;22.33;;;1.20;99.90;;;;;;5034897;28;20183;-89
2021/01/20 10:05:07;;;;;;;39.37;20.80;;;2.50;99.90;;;;;;5052315;28;20176;-92
2021/01/20 10:07:33;;;;;;;38.07;19.73;;;1.20;99.90;;;;;;5047848;28;20277;-94
2021/01/20 10:09:59;;;;;;;45.30;22.33;;;2.10;99.90;;;;;;5034809;28;20266;-93
2021/01/20 10:12:25;;;;;;;43.67;22.13;;;1.20;99.90;;;;;;5052935;28;20191;-91
2021/01/20 10:14:51;;;;;;;44.27;21.50;;;1.20;99.90;;;;;;5033438;28;20187;-90
2021/01/20 10:17:16;;;;;;;52.57;25.77;;;1.80;99.90;;;;;;5027685;28;20239;-90
2021/01/20 10:19:42;;;;;;;43.57;22.70;;;1.20;99.90;;;;;;5054407;28;20550;-92
2021/01/20 10:22:08;;;;;;;40.60;21.27;;;2.40;99.90;;;;;;5071637;28;20187;-90
2021/01/20 10:24:33;;;;;;;44.67;21.63;;;1.70;99.90;;;;;;5073017;28;20179;-92
2021/01/20 10:26:59;;;;;;;50.87;27.23;;;1.40;99.90;;;;;;5050934;28;20356;-89
2021/01/20 10:29:26;;;;;;;41.10;22.90;;;1.40;99.90;;;;;;5050851;28;20661;-89
2021/01/20 10:31:52;;;;;;;59.40;30.23;;;1.40;99.90;;;;;;5050549;28;20192;-88
2021/01/20 10:34:18;;;;;;;44.90;25.97;;;2.50;99.90;;;;;;5051658;28;20186;-90
2021/01/20 10:36:44;;;;;;;60.03;33.10;;;3.60;99.90;;;;;;5051756;28;20268;-89
2021/01/20 10:39:10;;;;;;;51.93;29.33;;;1.50;99.90;;;;;;5056597;28;20194;-87
2021/01/20 10:41:37;;;;;;;46.93;25.43;;;1.50;99.90;;;;;;5052201;28;20194;-87
2021/01/20 10:44:04;;;;;;;41.40;21.80;;;2.50;99.90;;;;;;5050608;28;20281;-88
2021/01/20 10:46:30;;;;;;;42.17;20.17;;;1.40;99.90;;;;;;5053491;28;20172;-88
2021/01/20 10:49:00;;;;;;;41.13;19.27;;;1.30;99.90;;;;;;5064887;28;20187;-88
2021/01/20 10:51:34;;;;;;;37.03;19.77;;;1.30;99.90;;;;;;5072019;28;20289;-89
2021/01/20 10:54:01;;;;;;;38.20;20.47;;;2.40;99.90;;;;;;5055856;28;20194;-86
2021/01/20 10:56:27;;;;;;;36.43;18.47;;;1.20;99.90;;;;;;5072374;28;20194;-90
2021/01/20 10:58:52;;;;;;;39.20;19.40;;;1.10;99.90;;;;;;5068602;28;20182;-90
2021/01/20 11:01:18;;;;;;;37.40;19.30;;;2.70;99.90;;;;;;5071570;28;20914;-90
2021/01/20 11:03:45;;;;;;;38.87;20.90;;;1.00;99.90;;;;;;5071069;28;20236;-89
2021/01/20 11:06:11;;;;;;;38.03;20.60;;;1.00;99.90;;;;;;5070190;28;20265;-87
2021/01/20 11:08:37;;;;;;;37.90;20.23;;;2.30;99.90;;;;;;5056031;28;20926;-85
2021/01/20 11:11:02;;;;;;;41.40;20.03;;;1.00;99.90;;;;;;5053525;28;20190;-89
2021/01/20 11:13:29;;;;;;;46.10;21.90;;;1.50;99.90;;;;;;5070468;28;20182;-88
2021/01/20 11:15:55;;;;;;;46.33;21.93;;;1.00;99.90;;;;;;5071893;28;20182;-87
2021/01/20 11:18:21;;;;;;;41.37;22.50;;;1.10;99.90;;;;;;5067688;28;20235;-88
2021/01/20 11:20:48;;;;;;;49.50;26.53;;;1.40;99.90;;;;;;5072408;28;20712;-91
2021/01/20 11:23:17;;;;;;;44.23;23.77;;;1.10;99.90;;;;;;5073401;28;20210;-90
2021/01/20 11:25:48;;;;;;;40.77;22.57;;;1.10;99.90;;;;;;5064699;28;20667;-91
2021/01/20 11:28:14;;;;;;;46.27;23.67;;;2.40;99.90;;;;;;5066418;28;20312;-92
2021/01/20 11:30:41;;;;;;;53.67;27.60;;;2.10;99.90;;;;;;5072058;28;20175;-88
2021/01/20 11:33:08;;;;;;;52.73;28.27;;;2.60;99.90;;;;;;5072368;28;20191;-90
2021/01/20 11:35:36;;;;;;;45.27;24.27;;;1.30;99.90;;;;;;5048241;28;20195;-91
2021/01/20 11:38:03;;;;;;;44.23;22.77;;;1.40;99.90;;;;;;5076381;28;20218;-89
2021/01/20 11:40:30;;;;;;;43.00;24.07;;;1.40;99.90;;;;;;5073825;28;20182;-88
2021/01/20 11:42:59;;;;;;;44.37;24.43;;;1.40;99.90;;;;;;5062947;28;20266;-88
2021/01/20 11:45:30;;;;;;;54.00;28.60;;;1.40;99.90;;;;;;5056082;28;20221;-90
2021/01/20 11:47:56;;;;;;;55.73;28.63;;;1.50;99.90;;;;;;5075611;28;20179;-90
2021/01/20 11:50:23;;;;;;;51.50;25.47;;;1.50;99.90;;;;;;5063062;28;20194;-94
2021/01/20 11:52:50;;;;;;;50.77;24.83;;;1.50;99.90;;;;;;5070255;28;20187;-92
2021/01/20 11:55:16;;;;;;;47.73;24.63;;;2.10;99.90;;;;;;5065528;28;20607;-91
2021/01/20 11:57:42;;;;;;;47.80;25.70;;;1.50;99.90;;;;;;5054848;28;20207;-92
2021/01/20 12:00:09;;;;;;;47.93;24.87;;;1.50;99.90;;;;;;5069087;28;20190;-91
2021/01/20 12:02:35;;;;;;;48.17;24.90;;;1.50;99.90;;;;;;5071398;28;20176;-92
2021/01/20 12:05:01;;;;;;;52.13;25.53;;;1.50;99.90;;;;;;5065843;28;20194;-93
2021/01/20 12:07:26;;;;;;;45.17;23.73;;;1.50;99.90;;;;;;5039617;28;20693;-89
2021/01/20 12:09:52;;;;;;;52.63;24.63;;;1.50;99.90;;;;;;5073431;28;20191;-93
2021/01/20 12:12:18;;;;;;;47.37;22.90;;;2.70;99.90;;;;;;5076385;28;20186;-92
2021/01/20 12:14:44;;;;;;;51.47;26.90;;;2.40;99.90;;;;;;5057653;28;20183;-90
2021/01/20 12:17:09;;;;;;;53.73;29.17;;;1.50;99.90;;;;;;5062638;28;20243;-93
2021/01/20 12:19:35;;;;;;;45.97;24.60;;;1.60;99.90;;;;;;5037246;28;20211;-93
2021/01/20 12:22:00;;;;;;;59.83;26.60;;;2.00;99.90;;;;;;5036189;28;20215;-88
2021/01/20 12:24:26;;;;;;;50.60;26.17;;;1.60;99.90;;;;;;5018964;28;20193;-91
2021/01/20 12:26:54;;;;;;;55.93;26.63;;;1.70;99.90;;;;;;5034517;28;20270;-89
2021/01/20 12:29:20;;;;;;;51.10;25.30;;;2.90;99.90;;;;;;5052643;28;20184;-88
2021/01/20 12:31:45;;;;;;;50.23;24.50;;;1.60;99.90;;;;;;5011879;28;20187;-90
2021/01/20 12:34:11;;;;;;;48.43;26.07;;;2.90;99.90;;;;;;5045373;28;20180;-88
2021/01/20 12:36:37;;;;;;;61.30;29.40;;;2.50;99.90;;;;;;5028027;28;20179;-91